createdAt,value
2018-06-11T00:04:47.575Z,21.3
2018-06-11T00:09:44.651Z,21.3
2018-06-11T00:14:41.441Z,20.7
2018-06-11T00:19:38.157Z,20.7
2018-06-11T00:24:34.900Z,20.7
2018-06-11T00:29:31.603Z,20.9
2018-06-11T00:34:28.066Z,21.3
2018-06-11T00:39:24.681Z,21.3
2018-06-11T00:44:21.576Z,20.7
2018-06-11T00:49:18.423Z,20.7
2018-06-11T00:54:15.044Z,20.7
2018-06-11T00:59:11.553Z,20.7
2018-06-11T01:04:08.130Z,21.2
2018-06-11T01:09:04.780Z,20.7
2018-06-11T01:14:01.038Z,21.2
2018-06-11T01:18:57.822Z,20.6
2018-06-11T01:23:54.419Z,20.5
2018-06-11T01:28:51.213Z,20.5
2018-06-11T01:33:48.089Z,20.5
2018-06-11T01:38:44.999Z,20.5
2018-06-11T01:43:41.516Z,20.4
2018-06-11T01:48:38.089Z,20.9
2018-06-11T01:53:34.183Z,20.3
2018-06-11T01:58:31.024Z,20.8
2018-06-11T02:03:27.129Z,20.2
2018-06-11T02:08:23.663Z,20.2
2018-06-11T02:13:20.304Z,20.1
2018-06-11T02:18:17.198Z,20.7
2018-06-11T02:23:13.561Z,20.1
2018-06-11T02:28:10.084Z,20
2018-06-11T02:33:06.512Z,20
2018-06-11T02:38:03.011Z,20.5
2018-06-11T02:42:59.662Z,20.5
2018-06-11T02:47:56.628Z,20.5
2018-06-11T02:52:53.443Z,20.4
2018-06-11T02:57:50.331Z,20.4
2018-06-11T03:02:47.599Z,19.8
2018-06-11T03:07:44.287Z,19.8
2018-06-11T03:12:41.126Z,20.3
2018-06-11T03:17:37.901Z,19.6
2018-06-11T03:22:34.610Z,19.8
2018-06-11T03:27:31.390Z,20.3
2018-06-11T03:32:28.078Z,20.3
2018-06-11T03:37:24.632Z,20.1
2018-06-11T03:42:21.603Z,20.2
2018-06-11T03:47:18.426Z,20.2
2018-06-11T03:52:15.652Z,20.2
2018-06-11T03:57:12.046Z,19.6
2018-06-11T04:02:09.019Z,20.2
2018-06-11T04:07:05.797Z,20.2
2018-06-11T04:12:02.633Z,19.7
2018-06-11T04:16:59.610Z,20.3
2018-06-11T04:21:56.245Z,20.3
2018-06-11T04:26:52.657Z,19.5
2018-06-11T04:31:49.388Z,20.3
2018-06-11T04:36:46.235Z,19.7
2018-06-11T04:41:42.285Z,19.8
2018-06-11T04:46:38.933Z,19.8
2018-06-11T04:51:35.575Z,19.8
2018-06-11T04:56:32.116Z,19.8
2018-06-11T05:01:28.893Z,19.9
2018-06-11T05:06:25.446Z,19.9
2018-06-11T05:11:21.709Z,20.5
2018-06-11T05:16:18.327Z,20
2018-06-11T05:21:14.329Z,20
2018-06-11T05:26:10.960Z,20.6
2018-06-11T05:31:07.559Z,20
2018-06-11T05:36:04.175Z,20.6
2018-06-11T05:41:00.680Z,20.1
2018-06-11T05:45:57.262Z,20.1
2018-06-11T05:50:53.874Z,20.1
2018-06-11T05:55:50.412Z,20.2
2018-06-11T06:00:47.129Z,20.2
2018-06-11T06:05:43.538Z,20.8
2018-06-11T06:10:40.388Z,20.9
2018-06-11T06:15:36.852Z,20.3
2018-06-11T06:20:33.464Z,20
2018-06-11T06:25:30.181Z,20.5
2018-06-11T06:30:26.650Z,20.3
2018-06-11T06:35:23.428Z,20.5
2018-06-11T06:40:19.959Z,21.2
2018-06-11T06:45:16.764Z,21.3
2018-06-11T06:50:13.399Z,20.8
2018-06-11T06:55:10.162Z,21.4
2018-06-11T07:00:06.741Z,21.5
2018-06-11T07:05:03.028Z,21
2018-06-11T07:09:59.595Z,21.6
2018-06-11T07:14:55.997Z,21.1
2018-06-11T07:19:52.518Z,21.2
2018-06-11T07:24:49.412Z,21.8
2018-06-11T07:29:46.005Z,21.9
2018-06-11T07:34:42.467Z,21.4
2018-06-11T07:39:39.155Z,21.5
2018-06-11T07:44:35.779Z,22.1
2018-06-11T07:49:32.472Z,21.6
2018-06-11T07:54:29.114Z,22.2
2018-06-11T07:59:25.786Z,21.7
2018-06-11T08:04:22.380Z,22.4
2018-06-11T08:09:18.348Z,22
2018-06-11T08:14:15.266Z,22
2018-06-11T08:19:11.713Z,22.1
2018-06-11T08:24:08.657Z,22.8
2018-06-11T08:29:05.408Z,22.3
2018-06-11T08:34:01.482Z,22.9
2018-06-11T08:38:58.111Z,23.1
2018-06-11T08:43:54.849Z,23.2
2018-06-11T08:48:51.623Z,22.8
2018-06-11T08:53:48.765Z,23.4
2018-06-11T08:58:46.707Z,23.5
2018-06-11T09:03:43.278Z,23.6
2018-06-11T09:08:39.576Z,23.2
2018-06-11T09:13:36.287Z,23.9
2018-06-11T09:18:33.133Z,24.1
2018-06-11T09:23:29.988Z,24.2
2018-06-11T09:28:27.924Z,24.5
2018-06-11T09:33:24.681Z,24.7
2018-06-11T09:38:21.687Z,24.9
2018-06-11T09:43:18.585Z,25.1
2018-06-11T09:48:19.488Z,25.3
2018-06-11T09:53:14.992Z,24.9
2018-06-11T09:58:11.795Z,25.5
2018-06-11T10:03:08.500Z,25.7
2018-06-11T10:08:05.862Z,25.5
2018-06-11T10:13:02.090Z,25.9
2018-06-11T10:17:58.815Z,25.5
2018-06-11T10:22:55.479Z,26.1
2018-06-11T10:27:52.398Z,25.7
2018-06-11T10:32:49.437Z,26.3
2018-06-11T10:37:46.217Z,25.9
2018-06-11T10:42:43.129Z,26.5
2018-06-11T10:47:39.953Z,26.6
2018-06-11T10:52:36.784Z,26.7
2018-06-11T10:57:33.611Z,26.8
2018-06-11T11:02:30.464Z,26.4
2018-06-11T11:07:27.386Z,27.1
2018-06-11T11:12:24.156Z,26.8
2018-06-11T11:17:20.464Z,26.9
2018-06-11T11:22:17.160Z,27.5
2018-06-11T11:27:21.502Z,27.3
2018-06-11T11:32:26.559Z,27.5
2018-06-11T11:37:31.335Z,28.2
2018-06-11T11:42:28.558Z,28.4
2018-06-11T11:47:25.404Z,28.6
2018-06-11T11:52:22.369Z,28.7
2018-06-11T11:57:19.393Z,28.4
2018-06-11T12:02:16.468Z,28.6
2018-06-11T12:07:13.431Z,29.3
2018-06-11T12:12:10.568Z,29.4
2018-06-11T12:17:07.521Z,29.6
2018-06-11T12:22:04.332Z,29.7
2018-06-11T12:27:01.415Z,29.9
2018-06-11T12:31:58.325Z,30.1
2018-06-11T12:36:55.093Z,30.2
2018-06-11T12:41:51.735Z,30.3
2018-06-11T12:46:48.583Z,30.3
2018-06-11T12:51:45.348Z,30.4
2018-06-11T12:56:42.399Z,30.4
2018-06-11T13:01:39.391Z,30.5
2018-06-11T13:06:36.096Z,31.1
2018-06-11T13:11:33.627Z,32
2018-06-11T13:16:30.684Z,32
2018-06-11T13:21:27.842Z,32
2018-06-11T13:26:24.501Z,32.1
2018-06-11T13:31:20.966Z,31.3
2018-06-11T13:36:17.427Z,31.2
2018-06-11T13:41:14.117Z,31
2018-06-11T13:46:10.526Z,30.8
2018-06-11T13:51:07.179Z,30.7
2018-06-11T13:56:03.593Z,30.9
2018-06-11T14:01:00.018Z,30.5
2018-06-11T14:05:56.848Z,30.5
2018-06-11T14:10:53.574Z,30.3
2018-06-11T14:15:50.289Z,30
2018-06-11T14:20:47.193Z,29.8
2018-06-11T14:25:43.781Z,29.7
2018-06-11T14:30:40.529Z,29.6
2018-06-11T14:35:37.555Z,29.4
2018-06-11T14:40:34.469Z,29.4
2018-06-11T14:45:30.858Z,29.3
2018-06-11T14:50:27.491Z,29.2
2018-06-11T14:55:24.397Z,29.1
2018-06-11T15:00:21.017Z,29
2018-06-11T15:05:17.556Z,28.9
2018-06-11T15:10:14.378Z,28.8
2018-06-11T15:15:10.652Z,28.7
2018-06-11T15:20:07.355Z,28.7
2018-06-11T15:25:03.832Z,28.9
2018-06-11T15:30:00.831Z,28.5
2018-06-11T15:34:57.379Z,29.2
2018-06-11T15:39:54.264Z,29.4
2018-06-11T15:44:51.098Z,29.5
2018-06-11T15:49:48.110Z,29.5
2018-06-11T15:54:44.801Z,29.4
2018-06-11T15:59:41.261Z,28.7
2018-06-11T16:04:37.926Z,29.3
2018-06-11T16:09:34.941Z,29.3
2018-06-11T16:14:31.474Z,29.2
2018-06-11T16:19:28.084Z,28.4
2018-06-11T16:24:24.608Z,29.1
2018-06-11T16:29:21.574Z,29
2018-06-11T16:34:18.181Z,28.9
2018-06-11T16:39:15.126Z,28.8
2018-06-11T16:44:11.680Z,28.2
2018-06-11T16:49:08.480Z,28.2
2018-06-11T16:54:05.032Z,28
2018-06-11T16:59:02.082Z,27.9
2018-06-11T17:03:58.581Z,28.2
2018-06-11T17:08:55.382Z,28.1
2018-06-11T17:13:51.946Z,28
2018-06-11T17:18:48.412Z,27.9
2018-06-11T17:23:44.965Z,27.3
2018-06-11T17:28:41.546Z,27.2
2018-06-11T17:33:38.155Z,26.9
2018-06-11T17:38:34.690Z,27
2018-06-11T17:43:31.314Z,26.9
2018-06-11T17:48:27.853Z,27.3
2018-06-11T17:53:24.431Z,26.6
2018-06-11T17:58:20.852Z,27
2018-06-11T18:03:17.755Z,26.4
2018-06-11T18:08:15.503Z,26.4
2018-06-11T18:13:11.796Z,26.8
2018-06-11T18:18:08.416Z,26.7
2018-06-11T18:23:05.411Z,26.6
2018-06-11T18:28:02.297Z,26.6
2018-06-11T18:32:59.225Z,26.5
2018-06-11T18:37:55.997Z,25.9
2018-06-11T18:42:52.639Z,26.4
2018-06-11T18:47:49.113Z,26.4
2018-06-11T18:52:45.861Z,26.3
2018-06-11T18:57:42.720Z,26.2
2018-06-11T19:02:39.404Z,25.6
2018-06-11T19:07:36.053Z,26.1
2018-06-11T19:12:32.987Z,26.1
2018-06-11T19:17:29.790Z,25.5
2018-06-11T19:22:26.467Z,25.9
2018-06-11T19:27:23.101Z,25.9
2018-06-11T19:32:20.063Z,25.8
2018-06-11T19:37:16.936Z,25.2
2018-06-11T19:42:13.501Z,25.7
2018-06-11T19:47:10.158Z,25.6
2018-06-11T19:52:07.420Z,25.6
2018-06-11T19:57:03.970Z,25.5
2018-06-11T20:02:01.532Z,25.4
2018-06-11T20:06:58.116Z,24.8
2018-06-11T20:11:55.041Z,25.4
2018-06-11T20:16:51.682Z,25.3
2018-06-11T20:21:48.294Z,25
2018-06-11T20:26:45.722Z,25.2
2018-06-11T20:31:41.701Z,25.2
2018-06-11T20:36:39.782Z,24.6
2018-06-11T20:41:36.533Z,24.6
2018-06-11T20:46:32.879Z,25.1
2018-06-11T20:51:29.828Z,25
2018-06-11T20:56:26.159Z,24.3
2018-06-11T21:01:22.680Z,24.4
2018-06-11T21:06:19.485Z,24.8
2018-06-11T21:11:15.797Z,24.9
2018-06-11T21:16:12.713Z,24.9
2018-06-11T21:21:09.193Z,24.5
2018-06-11T21:26:06.587Z,24.2
2018-06-11T21:31:03.307Z,24.8
2018-06-11T21:36:00.319Z,24.2
2018-06-11T21:40:56.833Z,24.7
2018-06-11T21:45:53.303Z,24.6
2018-06-11T21:50:49.789Z,24.6
2018-06-11T21:55:46.576Z,24.5
2018-06-11T22:00:43.178Z,24.5
2018-06-11T22:05:39.727Z,24.4
2018-06-11T22:10:36.462Z,24.4
2018-06-11T22:15:33.240Z,24.4
2018-06-11T22:20:30.030Z,24.3
2018-06-11T22:25:26.528Z,24.3
2018-06-11T22:30:23.055Z,24
2018-06-11T22:35:19.877Z,24.2
2018-06-11T22:40:16.627Z,24.1
2018-06-11T22:45:13.204Z,24.1
2018-06-11T22:50:09.805Z,24.1
2018-06-11T22:55:06.675Z,24
2018-06-11T23:00:03.146Z,24
2018-06-11T23:05:00.137Z,24
2018-06-11T23:09:56.674Z,24
2018-06-11T23:14:53.553Z,23.9
2018-06-11T23:19:50.225Z,23.3
2018-06-11T23:24:46.878Z,23.8
2018-06-11T23:29:43.618Z,23.8
2018-06-11T23:34:40.055Z,23.8
2018-06-11T23:39:36.778Z,23.2
2018-06-11T23:44:33.509Z,23.1
2018-06-11T23:49:30.505Z,23.1
2018-06-11T23:54:26.984Z,23.6
2018-06-11T23:59:23.764Z,23.6
